sensor_id;sensor_type;location;lat;lon;timestamp;pressure;altitude;pressure_sealevel;temperature;humidity
34370;BME280;20635;55.812;37.560;2023-04-08T00:00:57;100552.19;;;24.61;23.68
34370;BME280;20635;55.812;37.560;2023-04-08T00:03:23;100553.00;;;24.61;23.50
34370;BME280;20635;55.812;37.560;2023-04-08T00:05:48;100553.84;;;24.62;23.70
34370;BME280;20635;55.812;37.560;2023-04-08T00:08:14;100552.72;;;24.63;23.54
34370;BME280;20635;55.812;37.560;2023-04-08T00:10:40;100549.91;;;24.63;23.70
34370;BME280;20635;55.812;37.560;2023-04-08T00:13:06;100561.13;;;24.63;23.66
34370;BME280;20635;55.812;37.560;2023-04-08T00:15:32;100557.50;;;24.62;23.61
34370;BME280;20635;55.812;37.560;2023-04-08T00:17:58;100558.31;;;24.63;23.64
34370;BME280;20635;55.812;37.560;2023-04-08T00:20:23;100552.72;;;24.63;23.47
34370;BME280;20635;55.812;37.560;2023-04-08T00:22:49;100554.69;;;24.62;23.46
34370;BME280;20635;55.812;37.560;2023-04-08T00:25:15;100547.94;;;24.63;23.69
34370;BME280;20635;55.812;37.560;2023-04-08T00:27:41;100549.91;;;24.63;23.67
34370;BME280;20635;55.812;37.560;2023-04-08T00:30:07;100556.34;;;24.63;23.69
34370;BME280;20635;55.812;37.560;2023-04-08T00:32:34;100547.94;;;24.63;23.66
34370;BME280;20635;55.812;37.560;2023-04-08T00:35:00;100545.97;;;24.64;23.48
34370;BME280;20635;55.812;37.560;2023-04-08T00:37:27;100545.13;;;24.63;23.61
34370;BME280;20635;55.812;37.560;2023-04-08T00:39:52;100544.31;;;24.63;23.65
34370;BME280;20635;55.812;37.560;2023-04-08T00:42:19;100563.94;;;24.63;23.41
34370;BME280;20635;55.812;37.560;2023-04-08T00:44:46;100557.19;;;24.64;23.73
34370;BME280;20635;55.812;37.560;2023-04-08T00:47:12;100552.72;;;24.63;23.62
34370;BME280;20635;55.812;37.560;2023-04-08T00:49:38;100552.72;;;24.63;23.62
34370;BME280;20635;55.812;37.560;2023-04-08T00:52:04;100547.13;;;24.63;23.59
34370;BME280;20635;55.812;37.560;2023-04-08T00:54:30;100549.09;;;24.62;23.53
34370;BME280;20635;55.812;37.560;2023-04-08T00:56:56;100551.91;;;24.62;23.48
34370;BME280;20635;55.812;37.560;2023-04-08T00:59:24;100550.19;;;24.61;23.45
34370;BME280;20635;55.812;37.560;2023-04-08T01:01:54;100559.44;;;24.62;23.58
34370;BME280;20635;55.812;37.560;2023-04-08T01:06:54;100553.00;;;24.61;23.57
34370;BME280;20635;55.812;37.560;2023-04-08T01:09:22;100554.97;;;24.61;23.52
34370;BME280;20635;55.812;37.560;2023-04-08T01:11:50;100556.63;;;24.62;23.38
34370;BME280;20635;55.812;37.560;2023-04-08T01:14:19;100551.03;;;24.62;23.77
34370;BME280;20635;55.812;37.560;2023-04-08T01:16:45;100553.84;;;24.62;23.47
34370;BME280;20635;55.812;37.560;2023-04-08T01:19:16;100556.63;;;24.62;23.46
34370;BME280;20635;55.812;37.560;2023-04-08T01:21:45;100556.63;;;24.62;23.68
34370;BME280;20635;55.812;37.560;2023-04-08T01:24:17;100553.84;;;24.62;23.49
34370;BME280;20635;55.812;37.560;2023-04-08T01:26:45;100558.31;;;24.63;23.60
34370;BME280;20635;55.812;37.560;2023-04-08T01:29:11;100552.72;;;24.63;23.53
34370;BME280;20635;55.812;37.560;2023-04-08T01:31:38;100547.13;;;24.63;23.49
34370;BME280;20635;55.812;37.560;2023-04-08T01:34:05;100551.03;;;24.62;23.53
34370;BME280;20635;55.812;37.560;2023-04-08T01:36:32;100553.84;;;24.62;23.46
34370;BME280;20635;55.812;37.560;2023-04-08T01:39:00;100549.09;;;24.62;23.55
34370;BME280;20635;55.812;37.560;2023-04-08T01:41:27;100559.44;;;24.62;23.59
34370;BME280;20635;55.812;37.560;2023-04-08T01:43:54;100551.03;;;24.62;23.62
34370;BME280;20635;55.812;37.560;2023-04-08T01:46:22;100556.63;;;24.62;23.56
34370;BME280;20635;55.812;37.560;2023-04-08T01:48:48;100561.41;;;24.61;23.46
34370;BME280;20635;55.812;37.560;2023-04-08T01:51:14;100555.81;;;24.61;23.39
34370;BME280;20635;55.812;37.560;2023-04-08T01:53:41;100553.84;;;24.62;23.60
34370;BME280;20635;55.812;37.560;2023-04-08T01:56:10;100556.63;;;24.62;23.39
34370;BME280;20635;55.812;37.560;2023-04-08T01:58:44;100553.84;;;24.62;23.55
34370;BME280;20635;55.812;37.560;2023-04-08T02:01:11;100556.63;;;24.62;23.36
34370;BME280;20635;55.812;37.560;2023-04-08T02:03:38;100556.97;;;24.60;23.60
34370;BME280;20635;55.812;37.560;2023-04-08T02:06:06;100554.97;;;24.61;23.39
34370;BME280;20635;55.812;37.560;2023-04-08T02:08:33;100551.34;;;24.60;23.38
34370;BME280;20635;55.812;37.560;2023-04-08T02:10:59;100553.31;;;24.60;23.37
34370;BME280;20635;55.812;37.560;2023-04-08T02:13:24;100551.34;;;24.60;23.72
34370;BME280;20635;55.812;37.560;2023-04-08T02:15:51;100558.94;;;24.60;23.54
34370;BME280;20635;55.812;37.560;2023-04-08T02:18:21;100551.66;;;24.59;23.58
34370;BME280;20635;55.812;37.560;2023-04-08T02:20:50;100549.69;;;24.59;23.52
34370;BME280;20635;55.812;37.560;2023-04-08T02:23:19;100549.69;;;24.59;23.51
34370;BME280;20635;55.812;37.560;2023-04-08T02:25:46;100560.06;;;24.59;23.52
34370;BME280;20635;55.812;37.560;2023-04-08T02:28:12;100559.25;;;24.58;23.33
34370;BME280;20635;55.812;37.560;2023-04-08T02:30:44;100557.56;;;24.57;23.51
34370;BME280;20635;55.812;37.560;2023-04-08T02:33:12;100557.56;;;24.57;23.51
34370;BME280;20635;55.812;37.560;2023-04-08T02:35:39;100561.22;;;24.58;23.35
34370;BME280;20635;55.812;37.560;2023-04-08T02:38:07;100556.72;;;24.57;23.67
34370;BME280;20635;55.812;37.560;2023-04-08T02:40:33;100568.78;;;24.57;23.63
34370;BME280;20635;55.812;37.560;2023-04-08T02:43:02;100571.88;;;24.55;23.54
34370;BME280;20635;55.812;37.560;2023-04-08T02:45:31;100570.75;;;24.57;23.62
34370;BME280;20635;55.812;37.560;2023-04-08T02:47:58;100563.47;;;24.55;23.65
34370;BME280;20635;55.812;37.560;2023-04-08T02:50:25;100575.84;;;24.54;23.54
34370;BME280;20635;55.812;37.560;2023-04-08T02:52:51;100573.88;;;24.55;23.47
34370;BME280;20635;55.812;37.560;2023-04-08T02:55:17;100573.03;;;24.54;23.56
34370;BME280;20635;55.812;37.560;2023-04-08T02:57:42;100576.16;;;24.53;23.66
34370;BME280;20635;55.812;37.560;2023-04-08T03:00:08;100576.16;;;24.53;23.39
34370;BME280;20635;55.812;37.560;2023-04-08T03:02:34;100578.97;;;24.53;23.46
34370;BME280;20635;55.812;37.560;2023-04-08T03:05:00;100570.53;;;24.53;23.60
34370;BME280;20635;55.812;37.560;2023-04-08T03:07:26;100580.91;;;24.52;23.42
34370;BME280;20635;55.812;37.560;2023-04-08T03:09:53;100575.28;;;24.52;23.32
34370;BME280;20635;55.812;37.560;2023-04-08T03:12:19;100571.97;;;24.50;23.29
34370;BME280;20635;55.812;37.560;2023-04-08T03:14:45;100576.44;;;24.51;23.42
34370;BME280;20635;55.812;37.560;2023-04-08T03:17:11;100582.88;;;24.52;23.36
34370;BME280;20635;55.812;37.560;2023-04-08T03:19:37;100582.03;;;24.51;23.48
34370;BME280;20635;55.812;37.560;2023-04-08T03:22:02;100582.03;;;24.51;23.28
34370;BME280;20635;55.812;37.560;2023-04-08T03:24:28;100578.72;;;24.49;23.37
34370;BME280;20635;55.812;37.560;2023-04-08T03:26:54;100589.63;;;24.51;23.36
34370;BME280;20635;55.812;37.560;2023-04-08T03:29:20;100585.16;;;24.50;23.32
34370;BME280;20635;55.812;37.560;2023-04-08T03:31:45;100582.34;;;24.50;23.25
34370;BME280;20635;55.812;37.560;2023-04-08T03:34:11;100577.91;;;24.49;23.28
34370;BME280;20635;55.812;37.560;2023-04-08T03:36:37;100580.69;;;24.49;23.20
34370;BME280;20635;55.812;37.560;2023-04-08T03:39:02;100582.69;;;24.48;23.38
34370;BME280;20635;55.812;37.560;2023-04-08T03:41:28;100586.31;;;24.49;23.23
34370;BME280;20635;55.812;37.560;2023-04-08T03:43:55;100585.47;;;24.48;23.34
34370;BME280;20635;55.812;37.560;2023-04-08T03:46:20;100591.06;;;24.48;23.41
34370;BME280;20635;55.812;37.560;2023-04-08T03:48:47;100579.00;;;24.48;23.52
34370;BME280;20635;55.812;37.560;2023-04-08T03:51:13;100579.88;;;24.48;23.28
34370;BME280;20635;55.812;37.560;2023-04-08T03:53:38;100584.63;;;24.48;23.34
34370;BME280;20635;55.812;37.560;2023-04-08T03:56:04;100584.63;;;24.48;23.43
34370;BME280;20635;55.812;37.560;2023-04-08T03:58:30;100574.28;;;24.48;23.46
34370;BME280;20635;55.812;37.560;2023-04-08T04:00:56;100585.47;;;24.48;23.36
34370;BME280;20635;55.812;37.560;2023-04-08T04:03:22;100583.50;;;24.49;23.40
34370;BME280;20635;55.812;37.560;2023-04-08T04:05:48;100583.78;;;24.47;23.62
34370;BME280;20635;55.812;37.560;2023-04-08T04:08:13;100595.00;;;24.47;23.65
34370;BME280;20635;55.812;37.560;2023-04-08T04:10:39;100596.69;;;24.48;23.33
34370;BME280;20635;55.812;37.560;2023-04-08T04:13:05;100593.88;;;24.48;23.36
34370;BME280;20635;55.812;37.560;2023-04-08T04:15:31;100595.00;;;24.47;23.44
34370;BME280;20635;55.812;37.560;2023-04-08T04:17:57;100603.13;;;24.49;23.34
34370;BME280;20635;55.812;37.560;2023-04-08T04:20:22;100599.47;;;24.48;23.26
34370;BME280;20635;55.812;37.560;2023-04-08T04:22:50;100594.72;;;24.49;23.35
34370;BME280;20635;55.812;37.560;2023-04-08T04:25:16;100593.88;;;24.48;23.69
34370;BME280;20635;55.812;37.560;2023-04-08T04:27:42;100591.91;;;24.49;23.58
34370;BME280;20635;55.812;37.560;2023-04-08T04:30:07;100597.50;;;24.49;23.53
34370;BME280;20635;55.812;37.560;2023-04-08T04:32:33;100595.53;;;24.49;23.66
34370;BME280;20635;55.812;37.560;2023-04-08T04:35:00;100594.41;;;24.50;23.48
34370;BME280;20635;55.812;37.560;2023-04-08T04:37:25;100593.56;;;24.50;23.38
34370;BME280;20635;55.812;37.560;2023-04-08T04:39:51;100597.19;;;24.50;23.38
34370;BME280;20635;55.812;37.560;2023-04-08T04:42:17;100600.81;;;24.51;23.34
34370;BME280;20635;55.812;37.560;2023-04-08T04:44:43;100598.03;;;24.51;23.22
34370;BME280;20635;55.812;37.560;2023-04-08T04:47:09;100596.06;;;24.51;23.21
34370;BME280;20635;55.812;37.560;2023-04-08T04:49:34;100600.50;;;24.52;23.65
34370;BME280;20635;55.812;37.560;2023-04-08T04:52:00;100596.59;;;24.53;23.33
34370;BME280;20635;55.812;37.560;2023-04-08T04:54:26;100603.31;;;24.52;23.37
34370;BME280;20635;55.812;37.560;2023-04-08T04:56:52;100603.31;;;24.52;23.49
34370;BME280;20635;55.812;37.560;2023-04-08T04:59:18;100599.41;;;24.53;23.24
34370;BME280;20635;55.812;37.560;2023-04-08T05:01:43;100605.00;;;24.53;23.48
34370;BME280;20635;55.812;37.560;2023-04-08T05:04:09;100599.41;;;24.53;23.44
34370;BME280;20635;55.812;37.560;2023-04-08T05:06:35;100594.63;;;24.54;23.49
34370;BME280;20635;55.812;37.560;2023-04-08T05:09:01;100598.25;;;24.54;23.51
34370;BME280;20635;55.812;37.560;2023-04-08T05:11:26;100601.88;;;24.55;23.62
34370;BME280;20635;55.812;37.560;2023-04-08T05:13:52;100607.16;;;24.57;23.45
34370;BME280;20635;55.812;37.560;2023-04-08T05:16:18;100611.13;;;24.55;23.54
34370;BME280;20635;55.812;37.560;2023-04-08T05:18:43;100616.41;;;24.57;23.60
34370;BME280;20635;55.812;37.560;2023-04-08T05:21:09;100610.81;;;24.57;23.46
34370;BME280;20635;55.812;37.560;2023-04-08T05:23:35;100618.38;;;24.57;23.23
34370;BME280;20635;55.812;37.560;2023-04-08T05:26:01;100624.81;;;24.57;23.63
34370;BME280;20635;55.812;37.560;2023-04-08T05:28:26;100612.78;;;24.57;23.52
34370;BME280;20635;55.812;37.560;2023-04-08T05:30:52;100625.69;;;24.58;23.48
34370;BME280;20635;55.812;37.560;2023-04-08T05:33:18;100618.94;;;24.59;23.41
34370;BME280;20635;55.812;37.560;2023-04-08T05:35:45;100623.69;;;24.58;23.41
34370;BME280;20635;55.812;37.560;2023-04-08T05:38:11;100630.13;;;24.59;23.33
34370;BME280;20635;55.812;37.560;2023-04-08T05:40:36;100625.38;;;24.59;23.66
34370;BME280;20635;55.812;37.560;2023-04-08T05:43:02;100617.78;;;24.60;23.44
34370;BME280;20635;55.812;37.560;2023-04-08T05:45:28;100620.59;;;24.60;23.42
34370;BME280;20635;55.812;37.560;2023-04-08T05:47:54;100622.25;;;24.61;23.67
34370;BME280;20635;55.812;37.560;2023-04-08T05:50:20;100633.44;;;24.61;23.49
34370;BME280;20635;55.812;37.560;2023-04-08T05:52:45;100627.84;;;24.61;23.49
34370;BME280;20635;55.812;37.560;2023-04-08T05:55:12;100627.84;;;24.61;23.64
34370;BME280;20635;55.812;37.560;2023-04-08T05:57:38;100625.88;;;24.61;23.43
34370;BME280;20635;55.812;37.560;2023-04-08T06:00:04;100634.28;;;24.61;23.69
34370;BME280;20635;55.812;37.560;2023-04-08T06:02:31;100623.91;;;24.62;23.45
34370;BME280;20635;55.812;37.560;2023-04-08T06:04:57;100623.91;;;24.62;23.60
34370;BME280;20635;55.812;37.560;2023-04-08T06:07:23;100626.69;;;24.62;23.37
34370;BME280;20635;55.812;37.560;2023-04-08T06:09:48;100621.09;;;24.62;23.48
34370;BME280;20635;55.812;37.560;2023-04-08T06:12:14;100622.78;;;24.63;23.31
34370;BME280;20635;55.812;37.560;2023-04-08T06:14:40;100621.41;;;24.60;23.77
34370;BME280;20635;55.812;37.560;2023-04-08T06:17:06;100626.41;;;24.63;23.58
34370;BME280;20635;55.812;37.560;2023-04-08T06:19:32;100627.25;;;24.64;23.57
34370;BME280;20635;55.812;37.560;2023-04-08T06:21:57;100619.66;;;24.64;23.44
34370;BME280;20635;55.812;37.560;2023-04-08T06:24:27;100623.63;;;24.63;23.63
34370;BME280;20635;55.812;37.560;2023-04-08T06:26:55;100621.63;;;24.64;23.41
34370;BME280;20635;55.812;37.560;2023-04-08T06:29:21;100627.25;;;24.64;23.44
34370;BME280;20635;55.812;37.560;2023-04-08T06:31:47;100620.81;;;24.63;23.58
34370;BME280;20635;55.812;37.560;2023-04-08T06:34:13;100621.63;;;24.64;23.73
34370;BME280;20635;55.812;37.560;2023-04-08T06:36:39;100623.28;;;24.65;23.50
34370;BME280;20635;55.812;37.560;2023-04-08T06:39:05;100618.00;;;24.63;23.44
34370;BME280;20635;55.812;37.560;2023-04-08T06:41:31;100619.97;;;24.63;23.58
34370;BME280;20635;55.812;37.560;2023-04-08T06:44:02;100618.84;;;24.64;23.65
34370;BME280;20635;55.812;37.560;2023-04-08T06:46:28;100620.81;;;24.63;23.40
34370;BME280;20635;55.812;37.560;2023-04-08T06:48:54;100624.44;;;24.64;23.61
34370;BME280;20635;55.812;37.560;2023-04-08T06:51:20;100614.38;;;24.63;23.61
34370;BME280;20635;55.812;37.560;2023-04-08T06:53:45;100626.41;;;24.63;23.63
34370;BME280;20635;55.812;37.560;2023-04-08T06:56:11;100620.81;;;24.63;23.53
34370;BME280;20635;55.812;37.560;2023-04-08T06:58:37;100614.38;;;24.63;23.63
34370;BME280;20635;55.812;37.560;2023-04-08T07:01:03;100618.28;;;24.62;23.63
34370;BME280;20635;55.812;37.560;2023-04-08T07:03:29;100617.19;;;24.63;23.56
34370;BME280;20635;55.812;37.560;2023-04-08T07:05:55;100620.81;;;24.63;23.62
34370;BME280;20635;55.812;37.560;2023-04-08T07:08:23;100615.50;;;24.62;23.42
34370;BME280;20635;55.812;37.560;2023-04-08T07:10:50;100619.16;;;24.62;23.66
34370;BME280;20635;55.812;37.560;2023-04-08T07:13:16;100615.50;;;24.62;23.63
34370;BME280;20635;55.812;37.560;2023-04-08T07:15:42;100614.38;;;24.63;23.54
34370;BME280;20635;55.812;37.560;2023-04-08T07:18:07;100614.38;;;24.63;23.49
34370;BME280;20635;55.812;37.560;2023-04-08T07:20:33;100618.28;;;24.62;23.49
34370;BME280;20635;55.812;37.560;2023-04-08T07:23:02;100610.75;;;24.62;23.63
34370;BME280;20635;55.812;37.560;2023-04-08T07:25:28;100607.94;;;24.62;23.48
34370;BME280;20635;55.812;37.560;2023-04-08T07:27:54;100615.50;;;24.62;23.66
34370;BME280;20635;55.812;37.560;2023-04-08T07:30:21;100611.03;;;24.61;23.58
34370;BME280;20635;55.812;37.560;2023-04-08T07:32:49;100613.84;;;24.61;23.66
34370;BME280;20635;55.812;37.560;2023-04-08T07:35:15;100611.03;;;24.61;23.90
34370;BME280;20635;55.812;37.560;2023-04-08T07:37:48;100604.59;;;24.60;23.70
34370;BME280;20635;55.812;37.560;2023-04-08T07:40:14;100613.00;;;24.60;23.59
34370;BME280;20635;55.812;37.560;2023-04-08T07:42:40;100614.97;;;24.60;23.69
34370;BME280;20635;55.812;37.560;2023-04-08T07:45:09;100606.56;;;24.60;23.68
34370;BME280;20635;55.812;37.560;2023-04-08T07:47:35;100606.56;;;24.60;23.65
34370;BME280;20635;55.812;37.560;2023-04-08T07:50:01;100611.03;;;24.61;23.85
34370;BME280;20635;55.812;37.560;2023-04-08T07:52:29;100603.78;;;24.60;23.83
34370;BME280;20635;55.812;37.560;2023-04-08T07:54:55;100607.72;;;24.59;23.64
34370;BME280;20635;55.812;37.560;2023-04-08T07:57:21;100612.19;;;24.60;23.84
34370;BME280;20635;55.812;37.560;2023-04-08T07:59:47;100615.28;;;24.58;23.71
34370;BME280;20635;55.812;37.560;2023-04-08T08:02:13;100614.97;;;24.60;23.64
34370;BME280;20635;55.812;37.560;2023-04-08T08:04:39;100605.19;;;24.57;23.74
34370;BME280;20635;55.812;37.560;2023-04-08T08:07:04;100604.09;;;24.58;23.68
34370;BME280;20635;55.812;37.560;2023-04-08T08:09:30;100607.72;;;24.59;24.02
34370;BME280;20635;55.812;37.560;2023-04-08T08:11:59;100609.69;;;24.58;23.80
34370;BME280;20635;55.812;37.560;2023-04-08T08:14:24;100609.97;;;24.57;23.90
34370;BME280;20635;55.812;37.560;2023-04-08T08:16:51;100602.41;;;24.57;23.98
34370;BME280;20635;55.812;37.560;2023-04-08T08:19:19;100608.31;;;24.55;23.73
34370;BME280;20635;55.812;37.560;2023-04-08T08:21:44;100600.22;;;24.54;23.68
34370;BME280;20635;55.812;37.560;2023-04-08T08:24:10;100605.50;;;24.55;23.73
34370;BME280;20635;55.812;37.560;2023-04-08T08:26:36;100603.84;;;24.54;23.66
34370;BME280;20635;55.812;37.560;2023-04-08T08:29:03;100601.88;;;24.55;23.75
34370;BME280;20635;55.812;37.560;2023-04-08T08:31:29;100603.84;;;24.54;23.78
34370;BME280;20635;55.812;37.560;2023-04-08T08:33:55;100600.22;;;24.54;23.70
34370;BME280;20635;55.812;37.560;2023-04-08T08:36:20;100600.22;;;24.54;23.82
34370;BME280;20635;55.812;37.560;2023-04-08T08:38:46;100594.91;;;24.52;23.83
34370;BME280;20635;55.812;37.560;2023-04-08T08:41:12;100597.44;;;24.54;23.75
34370;BME280;20635;55.812;37.560;2023-04-08T08:43:38;100586.50;;;24.52;23.83
34370;BME280;20635;55.812;37.560;2023-04-08T08:46:05;100585.38;;;24.53;23.93
34370;BME280;20635;55.812;37.560;2023-04-08T08:48:33;100582.03;;;24.51;23.96
34370;BME280;20635;55.812;37.560;2023-04-08T08:51:01;100586.50;;;24.52;24.03
34370;BME280;20635;55.812;37.560;2023-04-08T08:53:32;100584.84;;;24.51;23.85
34370;BME280;20635;55.812;37.560;2023-04-08T08:56:00;100589.63;;;24.51;23.96
34370;BME280;20635;55.812;37.560;2023-04-08T08:58:29;100587.13;;;24.49;23.71
34370;BME280;20635;55.812;37.560;2023-04-08T09:00:54;100586.00;;;24.50;23.75
34370;BME280;20635;55.812;37.560;2023-04-08T09:03:21;100579.56;;;24.50;24.01
34370;BME280;20635;55.812;37.560;2023-04-08T09:05:51;100589.09;;;24.49;24.01
34370;BME280;20635;55.812;37.560;2023-04-08T09:08:30;100575.09;;;24.49;23.97
34370;BME280;20635;55.812;37.560;2023-04-08T09:13:41;100577.06;;;24.48;23.79
34370;BME280;20635;55.812;37.560;2023-04-08T09:16:09;100579.88;;;24.48;23.74
34370;BME280;20635;55.812;37.560;2023-04-08T09:18:37;100576.22;;;24.48;23.91
34370;BME280;20635;55.812;37.560;2023-04-08T09:21:04;100580.97;;;24.47;23.79
34370;BME280;20635;55.812;37.560;2023-04-08T09:23:40;100578.19;;;24.47;23.92
34370;BME280;20635;55.812;37.560;2023-04-08T09:26:25;100572.56;;;24.47;23.95
34370;BME280;20635;55.812;37.560;2023-04-08T09:28:59;100574.56;;;24.47;23.94
34370;BME280;20635;55.812;37.560;2023-04-08T09:31:29;100576.53;;;24.46;23.91
34370;BME280;20635;55.812;37.560;2023-04-08T09:33:59;100579.31;;;24.46;24.08
34370;BME280;20635;55.812;37.560;2023-04-08T09:36:28;100578.50;;;24.46;23.78
34370;BME280;20635;55.812;37.560;2023-04-08T09:38:55;100575.69;;;24.46;24.03
34370;BME280;20635;55.812;37.560;2023-04-08T09:41:23;100572.06;;;24.45;24.05
34370;BME280;20635;55.812;37.560;2023-04-08T09:43:53;100574.03;;;24.45;24.03
34370;BME280;20635;55.812;37.560;2023-04-08T09:46:26;100574.88;;;24.45;23.86
34370;BME280;20635;55.812;37.560;2023-04-08T09:49:06;100577.66;;;24.45;23.99
34370;BME280;20635;55.812;37.560;2023-04-08T09:51:48;100585.25;;;24.45;24.04
34370;BME280;20635;55.812;37.560;2023-04-08T09:54:17;100578.81;;;24.44;23.84
34370;BME280;20635;55.812;37.560;2023-04-08T09:56:47;100578.50;;;24.46;23.98
34370;BME280;20635;55.812;37.560;2023-04-08T09:59:14;100565.63;;;24.45;24.06
34370;BME280;20635;55.812;37.560;2023-04-08T10:01:46;100562.84;;;24.45;24.14
34370;BME280;20635;55.812;37.560;2023-04-08T10:04:15;100564.50;;;24.46;24.05
34370;BME280;20635;55.812;37.560;2023-04-08T10:06:43;100562.50;;;24.46;24.12
34370;BME280;20635;55.812;37.560;2023-04-08T10:09:09;100561.69;;;24.46;24.18
34370;BME280;20635;55.812;37.560;2023-04-08T10:11:35;100558.06;;;24.45;24.03
34370;BME280;20635;55.812;37.560;2023-04-08T10:14:02;100558.56;;;24.47;23.97
34370;BME280;20635;55.812;37.560;2023-04-08T10:16:27;100556.59;;;24.48;24.03
34370;BME280;20635;55.812;37.560;2023-04-08T10:18:54;100559.13;;;24.49;23.96
34370;BME280;20635;55.812;37.560;2023-04-08T10:21:36;100554.34;;;24.50;23.99
34370;BME280;20635;55.812;37.560;2023-04-08T10:24:05;100550.06;;;24.52;24.28
34370;BME280;20635;55.812;37.560;2023-04-08T10:26:32;100553.41;;;24.54;24.09
34370;BME280;20635;55.812;37.560;2023-04-08T10:31:57;100536.00;;;24.58;24.03
34370;BME280;20635;55.812;37.560;2023-04-08T10:34:26;100540.97;;;24.61;23.81
34370;BME280;20635;55.812;37.560;2023-04-08T10:36:53;100536.72;;;24.63;24.01
34370;BME280;20635;55.812;37.560;2023-04-08T10:39:19;100535.28;;;24.66;24.24
34370;BME280;20635;55.812;37.560;2023-04-08T10:41:47;100534.97;;;24.67;24.11
34370;BME280;20635;55.812;37.560;2023-04-08T10:44:23;100542.47;;;24.72;24.03
34370;BME280;20635;55.812;37.560;2023-04-08T10:46:49;100527.81;;;24.75;24.10
34370;BME280;20635;55.812;37.560;2023-04-08T10:49:15;100519.94;;;24.77;24.03
34370;BME280;20635;55.812;37.560;2023-04-08T10:51:44;100525.78;;;24.80;24.23
34370;BME280;20635;55.812;37.560;2023-04-08T10:54:11;100522.31;;;24.84;24.01
34370;BME280;20635;55.812;37.560;2023-04-08T10:59:09;100525.56;;;24.91;24.01
34370;BME280;20635;55.812;37.560;2023-04-08T11:01:39;100518.50;;;24.93;23.93
34370;BME280;20635;55.812;37.560;2023-04-08T11:04:14;100507.50;;;24.97;23.83
34370;BME280;20635;55.812;37.560;2023-04-08T11:06:41;100511.34;;;25.01;24.09
34370;BME280;20635;55.812;37.560;2023-04-08T11:09:07;100502.31;;;25.04;23.96
34370;BME280;20635;55.812;37.560;2023-04-08T11:11:33;100498.03;;;25.06;24.13
34370;BME280;20635;55.812;37.560;2023-04-08T11:13:59;100509.50;;;25.10;24.05
34370;BME280;20635;55.812;37.560;2023-04-08T11:16:26;100507.75;;;25.14;24.08
34370;BME280;20635;55.812;37.560;2023-04-08T11:18:52;100503.19;;;25.18;23.89
34370;BME280;20635;55.812;37.560;2023-04-08T11:21:18;100499.75;;;25.21;24.18
34370;BME280;20635;55.812;37.560;2023-04-08T11:23:44;100500.78;;;25.25;24.11
34370;BME280;20635;55.812;37.560;2023-04-08T11:26:10;100488.09;;;25.28;23.87
34370;BME280;20635;55.812;37.560;2023-04-08T11:28:36;100499.53;;;25.32;23.85
34370;BME280;20635;55.812;37.560;2023-04-08T11:31:02;100500.56;;;25.36;24.10
34370;BME280;20635;55.812;37.560;2023-04-08T11:33:32;100493.50;;;25.38;23.92
34370;BME280;20635;55.812;37.560;2023-04-08T11:36:00;100492.53;;;25.43;23.95
34370;BME280;20635;55.812;37.560;2023-04-08T11:38:26;100487.13;;;25.46;23.85
34370;BME280;20635;55.812;37.560;2023-04-08T11:40:53;100487.34;;;25.50;23.78
34370;BME280;20635;55.812;37.560;2023-04-08T11:43:19;100480.78;;;25.54;23.84
34370;BME280;20635;55.812;37.560;2023-04-08T11:45:45;100489.41;;;25.58;23.77
34370;BME280;20635;55.812;37.560;2023-04-08T11:48:11;100488.75;;;25.61;23.75
34370;BME280;20635;55.812;37.560;2023-04-08T11:50:38;100489.78;;;25.65;23.77
34370;BME280;20635;55.812;37.560;2023-04-08T11:53:14;100481.59;;;25.69;23.94
34370;BME280;20635;55.812;37.560;2023-04-08T11:55:40;100482.28;;;25.74;23.76
34370;BME280;20635;55.812;37.560;2023-04-08T11:58:06;100480.25;;;25.80;23.89
34370;BME280;20635;55.812;37.560;2023-04-08T12:00:32;100486.03;;;25.84;23.58
34370;BME280;20635;55.812;37.560;2023-04-08T12:02:58;100481.44;;;25.88;23.83
34370;BME280;20635;55.812;37.560;2023-04-08T12:05:24;100486.09;;;25.92;23.74
34370;BME280;20635;55.812;37.560;2023-04-08T12:07:50;100477.88;;;25.96;23.80
34370;BME280;20635;55.812;37.560;2023-04-08T12:10:16;100472.13;;;26.01;23.74
34370;BME280;20635;55.812;37.560;2023-04-08T12:12:42;100470.34;;;26.05;23.77
34370;BME280;20635;55.812;37.560;2023-04-08T12:15:08;100466.91;;;26.08;23.77
34370;BME280;20635;55.812;37.560;2023-04-08T12:17:34;100474.69;;;26.11;23.71
34370;BME280;20635;55.812;37.560;2023-04-08T12:20:00;100478.84;;;26.14;23.69
34370;BME280;20635;55.812;37.560;2023-04-08T12:22:26;100471.78;;;26.16;23.69
34370;BME280;20635;55.812;37.560;2023-04-08T12:24:52;100468.63;;;26.18;23.64
34370;BME280;20635;55.812;37.560;2023-04-08T12:27:18;100465.19;;;26.21;23.59
34370;BME280;20635;55.812;37.560;2023-04-08T12:29:44;100462.06;;;26.22;23.66
34370;BME280;20635;55.812;37.560;2023-04-08T12:32:10;100454.94;;;26.25;23.59
34370;BME280;20635;55.812;37.560;2023-04-08T12:34:36;100447.88;;;26.27;23.54
34370;BME280;20635;55.812;37.560;2023-04-08T12:37:02;100450.06;;;26.30;23.58
34370;BME280;20635;55.812;37.560;2023-04-08T12:39:28;100449.72;;;26.32;23.55
34370;BME280;20635;55.812;37.560;2023-04-08T12:41:54;100445.13;;;26.36;23.65
34370;BME280;20635;55.812;37.560;2023-04-08T12:44:21;100453.75;;;26.40;23.73
34370;BME280;20635;55.812;37.560;2023-04-08T12:46:47;100454.78;;;26.44;23.54
34370;BME280;20635;55.812;37.560;2023-04-08T12:49:12;100447.69;;;26.46;23.48